Charlottenburger TSV 1858

Begegnungen & Ergebnisse

Dies ist ein Beispiel Kalender. Als neuer SportsPress-Nutzer, sollten Sie zu Ihrem Dashboard gehen um diese Kalender zu löschen und neue Kalender für Ihre Inhalte zu erstellen. Haben Sie Spaß!

DateEventResultsArticle
2020-08-31 19:00:5031. August 2020 VfB Hermsdorf 2 vs 2. Herren 19:00:5019:00Recap
2020-08-31 19:30:1331. August 2020 3. Herren vs Charlottenburger TTC 4 19:30:1319:30Recap
2020-09-01 19:30:111. September 2020 1. Herren vs SG Rotation Prenzlauer Berg 1 19:30:1119:30Recap
2020-09-04 19:30:084. September 2020 TSV Tempelhof-Mariendorf 5 vs 5. Herren 19:30:0819:30Recap
2020-09-06 14:00:336. September 2020 DJK Blau-Weiß 2 vs 4. Herren 14:00:3314:00Recap
2020-09-10 19:00:2310. September 2020 SV Berliner Brauereien 2 vs 1. Herren 19:00:2319:00Recap
2020-09-10 19:30:4110. September 2020 SG Rotation Prenzlauer Berg 6 vs 3. Herren 19:30:4119:30Recap
2020-09-11 19:30:4911. September 2020 4. Herren vs TSV Staaken 4 19:30:4919:30Recap
2020-09-13 11:00:5113. September 2020 5. Herren vs TuS Lichterfelde 8 11:00:5111:00Recap
2020-09-13 14:00:1013. September 2020 2. Herren vs TTC Borussia Spandau 2 14:00:1014:00Recap
2020-09-14 19:30:2114. September 2020 3. Herren vs TSV Staaken 3 19:30:2119:30Recap
2020-09-15 19:30:4015. September 2020 1. Herren vs KSF Anadolu-Umut 1 19:30:4019:30Recap
2020-09-16 19:00:0216. September 2020 ASV Berlin 7 vs 4. Herren 19:00:0219:00Recap
2020-09-18 19:30:2618. September 2020 Köpenicker SV-Ajax 3 vs 2. Herren 19:30:2619:30Recap
2020-09-20 11:00:5320. September 2020 Deutsch-Chinesischer TT 3 vs 5. Herren 11:00:5311:00Recap
2020-09-25 19:00:2825. September 2020 TTC Heiligensee 3 vs 3. Herren 19:00:2819:00Recap
2020-09-25 19:30:4525. September 2020 TSC Berlin 1 vs 1. Herren 19:30:4519:30Recap
2020-09-26 15:30:0126. September 2020 Steglitzer TTK 1 vs 1. B-Schüler 15:30:0115:30Recap
2020-09-27 14:00:5727. September 2020 2. Herren vs CfL Berlin 2 14:00:5714:00Recap
2020-09-28 19:30:0928. September 2020 4. Herren vs Füchse Berlin 11 19:30:0919:30Recap
2020-10-05 19:30:325. Oktober 2020 3. Herren vs TTC Lok Pankow 5 19:30:3219:30Recap
2020-10-06 19:30:376. Oktober 2020 1. Herren vs TTC Neukölln 2 19:30:3719:30Recap
2020-10-11 10:00:3511. Oktober 2020 5. Herren vs Spandauer TTC 5 10:00:3510:00Recap
2020-10-11 14:00:2411. Oktober 2020 2. Herren vs Spandauer TTC 1 14:00:2414:00Recap
2020-10-11 18:00:0711. Oktober 2020 SC Siemensstadt 7 vs 4. Herren 18:00:0718:00Recap
2020-10-31 14:00:2931. Oktober 2020 ttc berlin eastside 1 vs 1. C-Schüler 14:00:29AbgesagtRecap
2020-10-31 15:30:0931. Oktober 2020 1. B-Schüler vs Hertha BSC 1 15:30:09AbgesagtRecap
2020-10-31 15:30:1631. Oktober 2020 TSV Rudow 1 vs 1. A-Schüler 15:30:16AbgesagtRecap
2020-11-07 11:00:007. November 2020 1. A-Schüler vs Füchse Berlin 1 11:00:00AbgesagtRecap
2020-11-07 15:30:087. November 2020 1. A-Schüler vs Lichtenrader SC 1 15:30:08AbgesagtRecap
2020-11-07 15:30:157. November 2020 ttc berlin eastside 1 vs 1. B-Schüler 15:30:15AbgesagtRecap
2020-11-14 15:30:4614. November 2020 1. B-Schüler vs SG Rotation Prenzlauer Berg 1 15:30:46AbgesagtRecap
2020-11-21 15:30:3821. November 2020 Olympischer SC 1 vs 1. B-Schüler 15:30:38AbgesagtRecap
2020-11-21 15:30:4721. November 2020 ASV Berlin 1 vs 1. A-Schüler 15:30:47AbgesagtRecap
2021-08-30 19:30:1630. August 2021 3. Herren vs SV Berliner Bären 1 19:30:1619:30Recap
2021-09-01 19:30:511. September 2021 Spandauer TTC 5 vs 5. Herren 19:30:5119:30Recap
2021-09-03 19:30:463. September 2021 4. Herren vs Lübarser TTC 3 19:30:4619:30Recap
2021-09-05 11:00:595. September 2021 BTTC Meteor 1 vs 1. Herren 11:00:5911:00Recap
2021-09-08 19:30:078. September 2021 TTC Borussia Spandau 2 vs 2. Herren 19:30:0719:30Recap
2021-09-09 19:30:029. September 2021 Füchse Berlin 7 vs 3. Herren 19:30:0219:30Recap
2021-09-10 19:30:2210. September 2021 1. Herren vs Hertha BSC 5 19:30:2219:30Recap
2021-09-12 10:00:1812. September 2021 5. Herren vs TSV Rudow 7 10:00:1810:00Recap
2021-09-12 14:00:2712. September 2021 2. Herren vs CfL Berlin 2 14:00:2714:00Recap
2021-09-12 14:00:2812. September 2021 Füchse Berlin 10 vs 4. Herren 14:00:2814:00Recap
2021-09-17 19:30:2517. September 2021 1. Herren vs SV Berliner Brauereien 2 19:30:2519:30Recap
2021-09-18 11:30:1918. September 2021 1. Jungen 18 vs TTC Heiligensee 1 11:30:1911:30Recap
2021-09-19 10:00:1819. September 2021 5. Herren vs Düppel Dentalspace 9 10:00:1810:00Recap
2021-09-19 14:00:1819. September 2021 2. Herren vs TTC Heiligensee 1 14:00:1814:00Recap
2021-09-20 19:30:1020. September 2021 TTC Heiligensee 3 vs 3. Herren 19:30:1019:30Recap
2021-09-24 17:30:5624. September 2021 TTC Borussia Spandau 1 vs 1. Jungen 18 17:30:5617:30Recap
2021-09-24 19:30:4624. September 2021 4. Herren vs DJK Blau-Weiß 2 19:30:4619:30Recap
2021-09-24 19:30:5224. September 2021 TSC Berlin 1 vs 1. Herren 19:30:5219:30Recap
2021-09-25 15:30:1625. September 2021 Steglitzer TTK 1 vs 1. Jungen 15 (A-Schüler) 15:30:1615:30Recap
2021-09-27 19:30:3127. September 2021 TSV Tempelhof-Mariendorf 5 vs 5. Herren 19:30:3119:30Recap
2021-09-30 19:30:0130. September 2021 KSF Anadolu-Umut 2 vs 2. Herren 19:30:0119:30Recap
2021-10-03 14:00:523. Oktober 2021 2. Herren vs VfB Hermsdorf 2 14:00:5214:00Recap
2021-10-05 19:00:395. Oktober 2021 Pichelsberger Rudergemeinschaft 1 vs 4. Herren 19:00:3919:00Recap
2021-10-08 19:30:478. Oktober 2021 1. Herren vs SG Rotation Prenzlauer Berg 1 19:30:4719:30Recap
2021-10-10 10:00:5110. Oktober 2021 5. Herren vs SF Kladow 3 10:00:5110:00Recap
2021-10-10 12:00:0210. Oktober 2021 SG Rotation Prenzlauer Berg 6 vs 3. Herren 12:00:0212:00Recap
2021-10-25 19:30:4125. Oktober 2021 3. Herren vs TSV Wittenau 4 19:30:4119:30Recap
2021-10-29 19:30:2929. Oktober 2021 4. Herren vs ASV Berlin 7 19:30:2919:30Recap
2021-10-29 19:30:3529. Oktober 2021 KSF Anadolu-Umut 1 vs 1. Herren 19:30:3519:30Recap
2021-10-30 15:30:5030. Oktober 2021 1. Jungen 18 vs VfB Hermsdorf 2 15:30:5015:30Recap
2021-10-31 10:00:2631. Oktober 2021 Deutsch-Chinesischer TT 3 vs 5. Herren 10:00:2610:00Recap
2021-10-31 10:00:3431. Oktober 2021 BTTC Meteor 2 vs 2. Herren 10:00:3410:00Recap
2021-11-03 19:15:153. November 2021 SC Charlottenburg 7 vs 4. Herren 19:15:1519:15Recap
2021-11-04 19:15:224. November 2021 Charlottenburger TTC 4 vs 3. Herren 19:15:2219:15Recap
2021-11-05 19:30:225. November 2021 1. Herren vs Steglitzer TTK 2 19:30:2219:30Recap
2021-11-06 15:30:316. November 2021 1. Jungen 13 (B-Schüler) vs ttc berlin eastside 1 15:30:3115:30Recap
2021-11-06 15:30:376. November 2021 1. Jungen 18 vs VfL Tegel 2 15:30:3715:30Recap
2021-11-07 14:00:157. November 2021 2. Herren vs Köpenicker SV-Ajax 3 14:00:1514:00Recap
2021-11-13 15:30:2913. November 2021 1. Jungen 15 (A-Schüler) vs SG Rotation Prenzlauer Berg 1 15:30:2915:30Recap
2021-11-13 15:30:3213. November 2021 SC Siemensstadt 2 vs 1. Jungen 18 15:30:3215:30Recap
2021-11-15 19:30:0615. November 2021 3. Herren vs TTC Lok Pankow 5 19:30:0619:30Recap
2021-11-18 19:00:5218. November 2021 SV Berliner Brauereien 6 vs 2. Herren 19:00:5219:00Recap
2021-11-19 19:30:3719. November 2021 4. Herren vs TSV Staaken 3 19:30:3719:30Recap
2021-11-20 15:30:0920. November 2021 Steglitzer TTK 1 vs 1. Jungen 13 (B-Schüler) 15:30:0915:30Recap
2021-11-20 15:30:2020. November 2021 Lichtenrader SC 1 vs 1. Jungen 15 (A-Schüler) 15:30:2015:30Recap
2021-11-21 11:00:2621. November 2021 SC Eintracht Berlin 1 vs 1. Herren 11:00:2611:00Recap
2021-11-29 19:00:2229. November 2021 SSV Rotation 2 vs 3. Herren 19:00:2219:00Preview
2021-12-03 19:30:183. Dezember 2021 1. Herren vs TTC Neukölln 2 19:30:1819:30Preview
2021-12-05 10:00:215. Dezember 2021 5. Herren vs TuS Lichterfelde 8 10:00:2110:00Preview
2021-12-05 11:00:025. Dezember 2021 Charlottenburger TTC 6 vs 4. Herren 11:00:0211:00Preview
2021-12-05 14:00:505. Dezember 2021 2. Herren vs Spandauer TTC 1 14:00:5014:00Preview